createdAt,value
2019-03-21T00:01:20.414Z,2.30
2019-03-21T00:03:50.991Z,2.30
2019-03-21T00:06:21.368Z,2.20
2019-03-21T00:08:50.490Z,2.10
2019-03-21T00:11:59.596Z,2.10
2019-03-21T00:14:46.819Z,2.10
2019-03-21T00:17:18.883Z,2.10
2019-03-21T00:19:47.869Z,2.10
2019-03-21T00:22:17.705Z,2.10
2019-03-21T00:24:46.596Z,2.10
2019-03-21T00:27:15.565Z,2.00
2019-03-21T00:29:45.498Z,2.00
2019-03-21T00:32:14.471Z,2.00
2019-03-21T00:34:43.358Z,2.00
2019-03-21T00:37:14.822Z,1.90
2019-03-21T00:39:47.237Z,1.90
2019-03-21T00:42:21.181Z,1.90
2019-03-21T00:44:51.024Z,1.90
2019-03-21T00:47:19.992Z,1.90
2019-03-21T00:49:48.985Z,1.90
2019-03-21T00:52:20.290Z,1.80
2019-03-21T00:54:53.545Z,1.80
2019-03-21T00:57:20.688Z,1.70
2019-03-21T00:59:49.666Z,1.70
2019-03-21T01:02:25.940Z,1.70
2019-03-21T01:04:54.923Z,1.60
2019-03-21T01:07:23.809Z,1.60
2019-03-21T01:09:52.752Z,1.60
2019-03-21T01:12:25.885Z,1.60
2019-03-21T01:14:55.872Z,1.60
2019-03-21T01:17:24.793Z,1.50
2019-03-21T01:19:53.785Z,1.40
2019-03-21T01:22:22.675Z,1.40
2019-03-21T01:24:52.584Z,1.40
2019-03-21T01:27:25.427Z,1.30
2019-03-21T01:29:54.364Z,1.30
2019-03-21T01:32:24.261Z,1.40
2019-03-21T01:34:55.728Z,1.40
2019-03-21T01:37:24.823Z,1.40
2019-03-21T01:39:53.809Z,1.40
2019-03-21T01:42:24.549Z,1.40
2019-03-21T01:44:53.126Z,1.40
2019-03-21T01:47:25.876Z,1.40
2019-03-21T01:49:54.798Z,1.40
2019-03-21T01:52:23.788Z,1.40
2019-03-21T01:54:53.718Z,1.40
2019-03-21T01:57:22.593Z,1.40
2019-03-21T01:59:51.490Z,1.40
2019-03-21T02:02:20.588Z,1.40
2019-03-21T02:04:49.399Z,1.30
2019-03-21T02:07:18.358Z,1.30
2019-03-21T02:09:51.345Z,1.30
2019-03-21T02:12:22.790Z,1.20
2019-03-21T02:14:52.516Z,1.20
2019-03-21T02:17:21.693Z,1.20
2019-03-21T02:19:50.583Z,1.20
2019-03-21T02:22:19.576Z,1.20
2019-03-21T02:24:48.778Z,1.50
2019-03-21T02:27:22.671Z,1.80
2019-03-21T02:29:52.695Z,1.90
2019-03-21T02:32:21.588Z,2.10
2019-03-21T02:34:50.354Z,2.20
2019-03-21T02:37:19.267Z,2.40
2019-03-21T02:39:59.376Z,2.50
2019-03-21T02:42:22.470Z,2.60
2019-03-21T02:44:51.462Z,2.70
2019-03-21T02:47:20.459Z,2.80
2019-03-21T02:49:49.342Z,2.80
2019-03-21T02:52:18.354Z,2.80
2019-03-21T02:54:48.402Z,2.90
2019-03-21T02:57:17.355Z,2.90
2019-03-21T02:59:46.334Z,2.90
2019-03-21T03:02:15.225Z,2.90
2019-03-21T03:04:44.216Z,2.90
2019-03-21T03:07:14.128Z,2.90
2019-03-21T03:09:43.021Z,3.00
2019-03-21T03:12:15.511Z,3.00
2019-03-21T03:14:54.233Z,3.10
2019-03-21T03:17:23.207Z,3.10
2019-03-21T03:19:53.094Z,3.10
2019-03-21T03:22:22.942Z,3.10
2019-03-21T03:24:55.813Z,3.20
2019-03-21T03:27:24.805Z,3.20
2019-03-21T03:29:53.727Z,3.20
2019-03-21T03:32:35.847Z,3.20
2019-03-21T03:34:56.602Z,3.20
2019-03-21T03:37:26.615Z,3.20
2019-03-21T03:39:55.504Z,3.30
2019-03-21T03:42:26.869Z,3.30
2019-03-21T03:44:56.880Z,3.30
2019-03-21T03:47:31.600Z,3.30
2019-03-21T03:50:06.734Z,3.30
2019-03-21T03:52:35.002Z,3.40
2019-03-21T03:55:07.660Z,3.40
2019-03-21T03:57:40.360Z,3.40
2019-03-21T04:00:12.423Z,3.40
2019-03-21T04:02:41.316Z,3.40
2019-03-21T04:05:12.109Z,3.50
2019-03-21T04:07:42.263Z,3.50
2019-03-21T04:10:17.265Z,3.40
2019-03-21T04:12:46.188Z,3.50
2019-03-21T04:15:22.693Z,3.50
2019-03-21T04:17:51.455Z,3.50
2019-03-21T04:20:23.368Z,3.50
2019-03-21T04:22:54.549Z,3.50
2019-03-21T04:25:48.474Z,3.40
2019-03-21T04:28:17.542Z,3.50
2019-03-21T04:30:47.522Z,3.50
2019-03-21T04:33:16.521Z,3.50
2019-03-21T04:35:45.415Z,3.50
2019-03-21T04:38:16.353Z,3.60
2019-03-21T04:40:45.241Z,3.60
2019-03-21T04:43:14.229Z,3.50
2019-03-21T04:45:43.120Z,3.60
2019-03-21T04:48:14.894Z,3.60
2019-03-21T04:50:42.972Z,3.60
2019-03-21T04:53:21.288Z,3.60
2019-03-21T04:55:50.251Z,3.70
2019-03-21T04:58:19.958Z,3.70
2019-03-21T05:00:56.539Z,3.80
2019-03-21T05:03:33.104Z,3.80
2019-03-21T05:06:06.998Z,3.80
2019-03-21T05:08:35.896Z,3.80
2019-03-21T05:11:04.802Z,3.80
2019-03-21T05:13:34.801Z,3.90
2019-03-21T05:16:14.056Z,3.90
2019-03-21T05:18:52.556Z,4.00
2019-03-21T05:21:24.962Z,4.00
2019-03-21T05:23:54.907Z,4.10
2019-03-21T05:26:23.824Z,4.20
2019-03-21T05:28:52.714Z,4.20
2019-03-21T05:31:38.923Z,4.20
2019-03-21T05:34:07.821Z,4.30
2019-03-21T05:36:36.794Z,4.30
2019-03-21T05:39:08.546Z,4.40
2019-03-21T05:41:40.840Z,4.50
2019-03-21T05:44:22.716Z,4.60
2019-03-21T05:46:51.712Z,4.70
2019-03-21T05:49:20.594Z,4.80
2019-03-21T05:51:49.486Z,4.90
2019-03-21T05:54:18.477Z,5.10
2019-03-21T05:56:47.367Z,5.30
2019-03-21T05:59:18.821Z,5.40
2019-03-21T06:01:51.511Z,5.60
2019-03-21T06:04:20.480Z,5.70
2019-03-21T06:06:58.238Z,5.70
2019-03-21T06:09:30.968Z,5.80
2019-03-21T06:12:04.500Z,6.00
2019-03-21T06:14:42.484Z,6.10
2019-03-21T06:17:15.225Z,6.10
2019-03-21T06:19:58.860Z,6.10
2019-03-21T06:22:45.791Z,6.20
2019-03-21T06:25:20.275Z,6.10
2019-03-21T06:27:49.203Z,6.20
2019-03-21T06:30:18.103Z,6.20
2019-03-21T06:32:47.092Z,6.20
2019-03-21T06:35:26.006Z,6.20
2019-03-21T06:37:54.997Z,6.30
2019-03-21T06:40:26.550Z,6.30
2019-03-21T06:42:57.807Z,6.40
2019-03-21T06:45:30.904Z,6.40
2019-03-21T06:47:59.725Z,6.60
2019-03-21T06:50:28.662Z,6.70
2019-03-21T06:52:57.552Z,6.80
2019-03-21T06:55:26.548Z,6.80
2019-03-21T06:57:58.333Z,7.00
2019-03-21T07:00:29.575Z,7.00
2019-03-21T07:02:59.668Z,7.20
2019-03-21T07:05:32.433Z,7.20
2019-03-21T07:08:02.257Z,7.20
2019-03-21T07:10:33.909Z,7.30
2019-03-21T07:13:05.378Z,7.30
2019-03-21T07:15:34.247Z,7.50
2019-03-21T07:18:03.143Z,7.50
2019-03-21T07:20:32.130Z,7.60
2019-03-21T07:23:01.020Z,7.60
2019-03-21T07:25:33.255Z,7.50
2019-03-21T07:28:04.753Z,7.50
2019-03-21T07:30:33.730Z,7.40
2019-03-21T07:33:02.621Z,7.30
2019-03-21T07:35:31.509Z,7.30
2019-03-21T07:38:00.399Z,7.30
2019-03-21T07:40:31.722Z,7.40
2019-03-21T07:42:59.820Z,7.40
2019-03-21T07:45:28.706Z,7.50
2019-03-21T07:48:00.464Z,7.50
2019-03-21T07:50:29.263Z,7.40
2019-03-21T07:52:58.158Z,7.60
2019-03-21T07:55:28.998Z,7.70
2019-03-21T07:58:02.802Z,7.70
2019-03-21T08:00:32.693Z,7.80
2019-03-21T08:03:12.033Z,7.80
2019-03-21T08:05:46.960Z,7.80
2019-03-21T08:08:22.811Z,7.80
2019-03-21T08:10:55.750Z,7.80
2019-03-21T08:13:24.690Z,8.00
2019-03-21T08:15:57.582Z,8.10
2019-03-21T08:18:29.634Z,8.10
2019-03-21T08:21:01.062Z,8.20
2019-03-21T08:23:29.881Z,8.10
2019-03-21T08:26:02.741Z,8.10
2019-03-21T08:28:36.669Z,8.20
2019-03-21T08:31:08.726Z,8.30
2019-03-21T08:33:37.615Z,8.20
2019-03-21T08:36:06.503Z,8.30
2019-03-21T08:38:35.498Z,8.40
2019-03-21T08:41:04.598Z,8.40
2019-03-21T08:43:36.062Z,8.40
2019-03-21T08:46:06.055Z,8.50
2019-03-21T08:48:41.778Z,8.60
2019-03-21T08:51:17.800Z,8.70
2019-03-21T08:53:46.699Z,8.70
2019-03-21T08:56:15.647Z,8.70
2019-03-21T08:58:47.912Z,8.80
2019-03-21T09:01:16.800Z,9.00
2019-03-21T09:06:14.379Z,9.40
2019-03-21T09:08:47.572Z,9.40
2019-03-21T09:11:16.561Z,9.60
2019-03-21T09:13:48.940Z,9.70
2019-03-21T09:16:25.408Z,9.90
2019-03-21T09:18:57.565Z,10.00
2019-03-21T09:21:33.960Z,10.30
2019-03-21T09:24:02.818Z,10.60
2019-03-21T09:26:31.762Z,10.80
2019-03-21T09:29:00.699Z,10.70
2019-03-21T09:31:37.067Z,10.70
2019-03-21T09:34:05.955Z,10.70
2019-03-21T09:36:34.988Z,10.60
2019-03-21T09:39:06.845Z,10.60
2019-03-21T09:41:37.889Z,10.50
2019-03-21T09:44:07.821Z,10.50
2019-03-21T09:46:36.751Z,10.50
2019-03-21T09:49:07.733Z,10.50
2019-03-21T09:51:38.726Z,10.40
2019-03-21T09:54:11.294Z,10.30
2019-03-21T09:56:40.204Z,10.30
2019-03-21T09:59:09.084Z,10.20
2019-03-21T10:01:40.386Z,10.20
2019-03-21T10:04:09.346Z,10.30
2019-03-21T10:06:38.210Z,10.40
2019-03-21T10:09:08.196Z,10.50
2019-03-21T10:11:37.117Z,10.60
2019-03-21T10:14:09.023Z,10.80
2019-03-21T10:16:36.635Z,10.90
2019-03-21T10:19:06.649Z,10.80
2019-03-21T10:21:43.256Z,10.90
2019-03-21T10:24:08.637Z,10.90
2019-03-21T10:26:37.516Z,10.80
2019-03-21T10:29:06.419Z,10.90
2019-03-21T10:31:35.294Z,11.00
2019-03-21T10:34:04.185Z,11.00
2019-03-21T10:36:36.652Z,11.10
2019-03-21T10:39:06.797Z,11.10
2019-03-21T10:41:40.564Z,10.90
2019-03-21T10:44:09.576Z,10.90
2019-03-21T10:46:38.471Z,10.70
2019-03-21T10:49:11.453Z,10.70
2019-03-21T10:51:40.340Z,10.60
2019-03-21T10:54:09.348Z,10.60
2019-03-21T10:56:41.885Z,10.70
2019-03-21T10:59:11.822Z,11.00
2019-03-21T11:04:09.377Z,11.30
2019-03-21T11:06:49.026Z,11.30
2019-03-21T11:09:18.951Z,11.50
2019-03-21T11:11:47.942Z,11.50
2019-03-21T11:14:20.824Z,11.50
2019-03-21T11:16:49.717Z,11.40
2019-03-21T11:19:21.095Z,11.40
2019-03-21T11:22:05.700Z,11.30
2019-03-21T11:24:26.015Z,11.20
2019-03-21T11:26:56.024Z,11.10
2019-03-21T11:29:24.921Z,11.10
2019-03-21T11:31:56.826Z,11.20
2019-03-21T11:34:25.360Z,11.10
2019-03-21T11:36:54.351Z,11.10
2019-03-21T11:39:25.902Z,11.10
2019-03-21T11:41:57.412Z,11.10
2019-03-21T11:44:26.354Z,11.10
2019-03-21T11:46:55.347Z,10.90
2019-03-21T11:49:24.225Z,11.00
2019-03-21T11:51:53.118Z,10.90
2019-03-21T11:54:22.165Z,10.80
2019-03-21T11:56:51.104Z,10.80
2019-03-21T11:59:20.096Z,10.70
2019-03-21T12:01:49.962Z,10.60
2019-03-21T12:04:19.011Z,10.50
2019-03-21T12:06:47.888Z,10.40
2019-03-21T12:09:16.773Z,10.40
2019-03-21T12:11:45.662Z,10.40
2019-03-21T12:14:32.079Z,10.30
2019-03-21T12:16:59.212Z,10.30
2019-03-21T12:19:33.120Z,10.10
2019-03-21T12:22:02.048Z,10.00
2019-03-21T12:24:37.380Z,9.90
2019-03-21T12:27:06.342Z,9.90
2019-03-21T12:29:35.231Z,9.80
2019-03-21T12:32:03.972Z,9.80
2019-03-21T12:34:36.502Z,9.80
2019-03-21T12:37:05.487Z,9.60
2019-03-21T12:39:34.293Z,9.50
2019-03-21T12:42:04.189Z,9.30
2019-03-21T12:44:35.736Z,9.30
2019-03-21T12:47:04.551Z,9.20
2019-03-21T12:49:38.410Z,9.20
2019-03-21T12:52:07.321Z,9.10
2019-03-21T12:54:36.213Z,9.00
2019-03-21T12:57:11.897Z,9.00
2019-03-21T12:59:39.726Z,8.90
2019-03-21T13:02:08.613Z,9.00
2019-03-21T13:04:37.381Z,9.10
2019-03-21T13:07:06.291Z,9.10
2019-03-21T13:09:35.180Z,9.10
2019-03-21T13:12:04.045Z,9.00
2019-03-21T13:14:32.899Z,8.90
2019-03-21T13:17:04.434Z,8.80
2019-03-21T13:19:33.400Z,8.70
2019-03-21T13:22:02.290Z,8.60
2019-03-21T13:24:31.386Z,8.60
2019-03-21T13:27:00.420Z,8.50
2019-03-21T13:29:29.368Z,8.50
2019-03-21T13:32:02.786Z,8.50
2019-03-21T13:34:32.710Z,8.50
2019-03-21T13:37:01.571Z,8.40
2019-03-21T13:39:31.332Z,8.40
2019-03-21T13:42:00.270Z,8.30
2019-03-21T13:44:29.169Z,8.40
2019-03-21T13:47:02.656Z,8.40
2019-03-21T13:49:34.923Z,8.50
2019-03-21T13:52:07.711Z,8.50
2019-03-21T13:54:36.593Z,8.40
2019-03-21T13:57:05.503Z,8.50
2019-03-21T13:59:34.480Z,8.60
2019-03-21T14:02:03.399Z,8.60
2019-03-21T14:04:32.274Z,8.70
2019-03-21T14:07:01.143Z,8.80
2019-03-21T14:09:31.060Z,8.80
2019-03-21T14:11:59.817Z,8.70
2019-03-21T14:14:31.108Z,8.80
2019-03-21T14:17:01.851Z,8.80
2019-03-21T14:19:30.618Z,8.80
2019-03-21T14:21:59.374Z,8.80
2019-03-21T14:24:28.290Z,8.70
2019-03-21T14:26:57.176Z,8.80
2019-03-21T14:29:30.236Z,8.80
2019-03-21T14:31:57.661Z,8.70
2019-03-21T14:34:29.169Z,8.70
2019-03-21T14:36:58.059Z,8.80
2019-03-21T14:39:31.864Z,8.80
2019-03-21T14:42:00.047Z,8.80
2019-03-21T14:44:29.033Z,8.80
2019-03-21T14:46:57.921Z,8.80
2019-03-21T14:49:28.140Z,8.80
2019-03-21T14:51:57.234Z,8.70
2019-03-21T14:54:26.129Z,8.70
2019-03-21T14:56:57.409Z,8.70
2019-03-21T14:59:26.256Z,8.70
2019-03-21T15:01:55.248Z,8.70
2019-03-21T15:04:24.140Z,8.70
2019-03-21T15:06:53.888Z,8.70
2019-03-21T15:09:22.840Z,8.60
2019-03-21T15:11:52.796Z,8.60
2019-03-21T15:14:21.742Z,8.60
2019-03-21T15:16:52.696Z,8.60
2019-03-21T15:19:22.598Z,8.60
2019-03-21T15:21:51.509Z,8.60
2019-03-21T15:24:20.489Z,8.60
2019-03-21T15:26:51.493Z,8.60
2019-03-21T15:29:19.894Z,8.60
2019-03-21T15:31:48.784Z,8.60
2019-03-21T15:34:21.769Z,8.50
2019-03-21T15:36:51.683Z,8.50
2019-03-21T15:39:20.571Z,8.50
2019-03-21T15:41:49.461Z,8.50
2019-03-21T15:44:18.352Z,8.50
2019-03-21T15:46:47.343Z,8.50
2019-03-21T15:49:16.289Z,8.50
2019-03-21T15:51:50.539Z,8.50
2019-03-21T15:54:21.674Z,8.50
2019-03-21T15:56:51.607Z,8.50
2019-03-21T15:59:23.055Z,8.60
2019-03-21T16:01:52.944Z,8.60
2019-03-21T16:04:28.309Z,8.50
2019-03-21T16:07:02.014Z,8.50
2019-03-21T16:09:30.119Z,8.50
2019-03-21T16:11:58.972Z,8.50
2019-03-21T16:14:27.981Z,8.50
2019-03-21T16:16:56.857Z,8.50
2019-03-21T16:19:25.847Z,8.60
2019-03-21T16:21:58.524Z,8.60
2019-03-21T16:24:27.515Z,8.70
2019-03-21T16:26:56.818Z,8.60
2019-03-21T16:29:25.809Z,8.60
2019-03-21T16:31:54.697Z,8.60
2019-03-21T16:34:24.712Z,8.60
2019-03-21T16:36:53.604Z,8.50
2019-03-21T16:39:22.697Z,8.50
2019-03-21T16:41:52.570Z,8.50
2019-03-21T16:44:23.137Z,8.40
2019-03-21T16:46:52.030Z,8.40
2019-03-21T16:49:21.026Z,8.50
2019-03-21T16:51:49.912Z,8.50
2019-03-21T16:54:18.685Z,8.50
2019-03-21T16:56:48.613Z,8.50
2019-03-21T16:59:17.612Z,8.50
2019-03-21T17:01:47.345Z,8.50
2019-03-21T17:04:16.303Z,8.40
2019-03-21T17:06:46.335Z,8.40
2019-03-21T17:09:15.213Z,8.50
2019-03-21T17:11:46.465Z,8.50
2019-03-21T17:14:22.527Z,8.50
2019-03-21T17:16:51.604Z,8.40
2019-03-21T17:19:21.517Z,8.40
2019-03-21T17:21:51.433Z,8.40
2019-03-21T17:24:29.169Z,8.30
2019-03-21T17:26:55.253Z,8.30
2019-03-21T17:29:24.142Z,8.20
2019-03-21T17:31:55.530Z,8.20
2019-03-21T17:34:27.984Z,8.10
2019-03-21T17:36:56.853Z,8.10
2019-03-21T17:39:25.745Z,8.00
2019-03-21T17:41:58.738Z,8.00
2019-03-21T17:44:27.721Z,8.00
2019-03-21T17:46:58.995Z,8.00
2019-03-21T17:49:28.717Z,7.90
2019-03-21T17:51:59.441Z,7.90
2019-03-21T17:54:40.641Z,7.90
2019-03-21T17:57:00.017Z,7.90
2019-03-21T17:59:32.231Z,7.90
2019-03-21T18:02:01.012Z,7.80
2019-03-21T18:04:35.820Z,7.80
2019-03-21T18:07:05.031Z,7.70
2019-03-21T18:09:34.946Z,7.80
2019-03-21T18:12:03.833Z,7.70
2019-03-21T18:14:37.541Z,7.70
2019-03-21T18:17:05.710Z,7.60
2019-03-21T18:19:34.710Z,7.70
2019-03-21T18:22:03.601Z,7.60
2019-03-21T18:24:32.481Z,7.60
2019-03-21T18:27:01.305Z,7.70
2019-03-21T18:29:30.363Z,7.70
2019-03-21T18:31:59.313Z,7.60
2019-03-21T18:34:28.260Z,7.60
2019-03-21T18:36:57.344Z,7.60
2019-03-21T18:39:26.433Z,7.60
2019-03-21T18:41:55.332Z,7.60
2019-03-21T18:44:24.212Z,7.60
2019-03-21T18:46:53.102Z,7.60
2019-03-21T18:49:25.198Z,7.60
2019-03-21T18:51:52.794Z,7.60
2019-03-21T18:54:22.850Z,7.60
2019-03-21T18:56:51.733Z,7.60
2019-03-21T18:59:20.620Z,7.60
2019-03-21T19:01:58.392Z,7.60
2019-03-21T19:04:20.038Z,7.60
2019-03-21T19:06:52.956Z,7.60
2019-03-21T19:09:24.478Z,7.50
2019-03-21T19:11:57.366Z,7.60
2019-03-21T19:14:29.829Z,7.60
2019-03-21T19:16:58.821Z,7.60
2019-03-21T19:19:27.712Z,7.60
2019-03-21T19:21:56.602Z,7.60
2019-03-21T19:24:25.356Z,7.60
2019-03-21T19:26:56.237Z,7.60
2019-03-21T19:29:25.217Z,7.60
2019-03-21T19:31:55.000Z,7.60
2019-03-21T19:34:26.380Z,7.60
2019-03-21T19:36:57.729Z,7.70
2019-03-21T19:39:26.672Z,7.60
2019-03-21T19:41:55.626Z,7.70
2019-03-21T19:44:24.597Z,7.70
2019-03-21T19:46:54.509Z,7.70
2019-03-21T19:49:23.932Z,7.70
2019-03-21T19:51:53.003Z,7.70
2019-03-21T19:54:21.894Z,7.70
2019-03-21T19:56:50.885Z,7.70
2019-03-21T19:59:19.778Z,7.70
2019-03-21T20:01:52.559Z,7.70
2019-03-21T20:04:23.828Z,7.70
2019-03-21T20:06:59.008Z,7.70
2019-03-21T20:09:27.929Z,7.70
2019-03-21T20:12:03.292Z,7.70
2019-03-21T20:14:32.165Z,7.70
2019-03-21T20:17:05.056Z,7.70
2019-03-21T20:19:34.136Z,7.70
2019-03-21T20:22:03.209Z,7.70
2019-03-21T20:24:32.184Z,7.70
2019-03-21T20:27:01.117Z,7.70
2019-03-21T20:29:30.105Z,7.70
2019-03-21T20:31:58.993Z,7.80
2019-03-21T20:34:27.883Z,7.80
2019-03-21T20:37:03.661Z,7.70
2019-03-21T20:39:30.689Z,7.80
2019-03-21T20:41:59.673Z,7.70
2019-03-21T20:44:29.688Z,7.80
2019-03-21T20:47:01.248Z,7.80
2019-03-21T20:49:30.131Z,7.80
2019-03-21T20:51:59.025Z,7.80
2019-03-21T20:54:27.908Z,7.80
2019-03-21T20:56:56.799Z,7.80
2019-03-21T20:59:25.594Z,7.80
2019-03-21T21:02:02.686Z,7.80
2019-03-21T21:04:24.902Z,7.80
2019-03-21T21:06:53.891Z,7.80
2019-03-21T21:09:25.253Z,7.80
2019-03-21T21:11:54.153Z,7.80
2019-03-21T21:14:23.120Z,7.80
2019-03-21T21:16:52.010Z,7.80
2019-03-21T21:19:23.587Z,7.80
2019-03-21T21:21:53.883Z,7.80
2019-03-21T21:24:23.797Z,7.80
2019-03-21T21:26:54.326Z,7.80
2019-03-21T21:29:23.216Z,7.90
2019-03-21T21:31:53.040Z,7.90
2019-03-21T21:34:24.579Z,7.80
2019-03-21T21:36:53.468Z,7.80
2019-03-21T21:39:23.385Z,7.80
2019-03-21T21:41:52.296Z,7.90
2019-03-21T21:44:22.041Z,7.90
2019-03-21T21:46:53.428Z,7.90
2019-03-21T21:49:24.449Z,7.90
2019-03-21T21:51:52.849Z,7.90
2019-03-21T21:54:21.843Z,7.90
2019-03-21T21:56:50.833Z,7.90
2019-03-21T21:59:19.721Z,7.90
2019-03-21T22:01:48.613Z,7.90
2019-03-21T22:04:22.108Z,7.90
2019-03-21T22:06:50.998Z,7.90
2019-03-21T22:09:19.892Z,7.90
2019-03-21T22:11:51.445Z,7.90
2019-03-21T22:14:27.394Z,7.90
2019-03-21T22:16:56.390Z,7.90
2019-03-21T22:19:25.281Z,7.90
2019-03-21T22:21:54.274Z,7.90
2019-03-21T22:24:23.158Z,8.00
2019-03-21T22:26:53.072Z,8.00
2019-03-21T22:29:21.965Z,8.00
2019-03-21T22:31:50.849Z,8.00
2019-03-21T22:34:19.740Z,8.00
2019-03-21T22:36:49.620Z,8.00
2019-03-21T22:39:18.860Z,8.00
2019-03-21T22:41:48.764Z,8.00
2019-03-21T22:44:18.576Z,8.00
2019-03-21T22:46:47.463Z,8.00
2019-03-21T22:49:16.558Z,8.00
2019-03-21T22:51:47.929Z,8.00
2019-03-21T22:54:21.480Z,8.00
2019-03-21T22:56:55.415Z,8.10
2019-03-21T22:59:29.729Z,8.00
2019-03-21T23:01:58.724Z,8.10
2019-03-21T23:04:30.573Z,8.00
2019-03-21T23:06:59.470Z,8.00
2019-03-21T23:09:34.613Z,8.00
2019-03-21T23:12:03.495Z,8.00
2019-03-21T23:14:32.488Z,8.00
2019-03-21T23:17:02.402Z,7.90
2019-03-21T23:19:34.988Z,7.90
2019-03-21T23:22:06.229Z,7.90
2019-03-21T23:24:35.111Z,7.90
2019-03-21T23:27:04.006Z,7.90
2019-03-21T23:29:32.997Z,7.90
2019-03-21T23:32:01.736Z,7.80
2019-03-21T23:34:32.409Z,7.80
2019-03-21T23:37:03.860Z,7.80
2019-03-21T23:39:35.309Z,7.70
2019-03-21T23:42:04.301Z,7.60
2019-03-21T23:44:33.213Z,7.50
2019-03-21T23:47:02.133Z,7.50
2019-03-21T23:49:31.072Z,7.40
2019-03-21T23:52:00.959Z,7.30
2019-03-21T23:54:29.876Z,7.30
2019-03-21T23:57:04.834Z,7.20
2019-03-21T23:59:32.262Z,7.20
